createdAt,value
2022-10-20T00:01:15.468Z,12.50
2022-10-20T00:03:42.747Z,12.50
2022-10-20T00:06:14.549Z,12.40
2022-10-20T00:08:42.813Z,12.50
2022-10-20T00:11:11.014Z,12.40
2022-10-20T00:13:38.803Z,12.50
2022-10-20T00:16:05.965Z,12.30
2022-10-20T00:18:32.707Z,12.40
2022-10-20T00:20:59.566Z,12.40
2022-10-20T00:23:26.561Z,12.40
2022-10-20T00:26:03.413Z,12.40
2022-10-20T00:28:30.488Z,12.40
2022-10-20T00:30:57.614Z,12.40
2022-10-20T00:33:24.987Z,12.40
2022-10-20T00:35:52.163Z,12.40
2022-10-20T00:40:50.685Z,12.50
2022-10-20T00:43:17.824Z,12.50
2022-10-20T00:45:57.369Z,12.50
2022-10-20T00:48:29.834Z,12.50
2022-10-20T00:50:57.125Z,12.40
2022-10-20T00:53:28.061Z,12.40
2022-10-20T00:55:57.844Z,12.40
2022-10-20T00:58:25.723Z,12.50
2022-10-20T01:00:56.481Z,12.40
2022-10-20T01:03:39.615Z,12.40
2022-10-20T01:06:06.675Z,12.40
2022-10-20T01:08:33.611Z,12.40
2022-10-20T01:11:11.289Z,12.50
2022-10-20T01:14:08.483Z,12.40
2022-10-20T01:17:08.660Z,12.40
2022-10-20T01:19:48.070Z,12.40
2022-10-20T01:22:44.628Z,12.30
2022-10-20T01:25:19.020Z,12.30
2022-10-20T01:27:58.783Z,12.30
2022-10-20T01:30:25.691Z,12.30
2022-10-20T01:33:07.023Z,12.40
2022-10-20T01:35:45.908Z,12.40
2022-10-20T01:38:27.812Z,12.40
2022-10-20T01:41:01.940Z,12.40
2022-10-20T01:43:33.119Z,12.40
2022-10-20T01:46:01.360Z,12.40
2022-10-20T01:48:32.591Z,12.40
2022-10-20T01:51:01.588Z,12.50
2022-10-20T01:53:28.657Z,12.50
2022-10-20T01:55:57.554Z,12.40
2022-10-20T01:58:48.411Z,12.30
2022-10-20T02:01:28.049Z,12.40
2022-10-20T02:03:58.271Z,12.40
2022-10-20T02:06:58.087Z,12.40
2022-10-20T02:09:38.300Z,12.40
2022-10-20T02:12:09.717Z,12.40
2022-10-20T02:14:38.459Z,12.40
2022-10-20T02:17:10.773Z,12.30
2022-10-20T02:19:42.397Z,12.40
2022-10-20T02:22:09.826Z,12.40
2022-10-20T02:24:38.921Z,12.40
2022-10-20T02:27:11.329Z,12.40
2022-10-20T02:29:55.508Z,12.40
2022-10-20T02:32:23.991Z,12.40
2022-10-20T02:34:50.775Z,12.40
2022-10-20T02:39:49.016Z,12.40
2022-10-20T02:42:17.233Z,12.30
2022-10-20T02:44:44.102Z,12.40
2022-10-20T02:47:10.810Z,12.30
2022-10-20T02:49:37.520Z,12.30
2022-10-20T02:52:04.296Z,12.30
2022-10-20T02:54:30.973Z,12.30
2022-10-20T02:56:57.787Z,12.30
2022-10-20T02:59:24.561Z,12.30
2022-10-20T03:01:52.348Z,12.30
2022-10-20T03:04:19.211Z,12.40
2022-10-20T03:06:46.069Z,12.40
2022-10-20T03:09:13.113Z,12.40
2022-10-20T03:11:39.812Z,12.40
2022-10-20T03:14:06.541Z,12.20
2022-10-20T03:16:33.243Z,12.20
2022-10-20T03:19:03.456Z,12.20
2022-10-20T03:21:33.089Z,12.30
2022-10-20T03:23:59.845Z,12.20
2022-10-20T03:26:26.603Z,12.20
2022-10-20T03:28:53.333Z,12.20
2022-10-20T03:31:20.077Z,12.20
2022-10-20T03:33:46.744Z,12.20
2022-10-20T03:36:13.430Z,12.20
2022-10-20T03:38:43.273Z,12.20
2022-10-20T03:41:10.907Z,12.10
2022-10-20T03:43:40.062Z,12.10
2022-10-20T03:46:09.755Z,12.20
2022-10-20T03:48:37.439Z,12.20
2022-10-20T03:51:05.089Z,12.20
2022-10-20T03:53:32.489Z,12.20
2022-10-20T03:55:59.226Z,12.10
2022-10-20T03:58:25.965Z,12.00
2022-10-20T04:00:52.961Z,11.90
2022-10-20T04:03:19.659Z,11.90
2022-10-20T04:05:46.355Z,11.80
2022-10-20T04:10:39.882Z,11.70
2022-10-20T04:13:07.937Z,11.70
2022-10-20T04:15:35.923Z,11.60
2022-10-20T04:18:02.623Z,11.50
2022-10-20T04:20:29.361Z,11.50
2022-10-20T04:22:56.054Z,11.70
2022-10-20T04:25:22.743Z,11.60
2022-10-20T04:27:49.529Z,11.60
2022-10-20T04:30:16.339Z,11.70
2022-10-20T04:32:44.506Z,11.70
2022-10-20T04:35:11.295Z,11.80
2022-10-20T04:37:38.424Z,11.70
2022-10-20T04:40:05.788Z,11.70
2022-10-20T04:42:32.471Z,11.70
2022-10-20T04:44:59.145Z,11.70
2022-10-20T04:47:25.845Z,11.60
2022-10-20T04:49:52.528Z,11.50
2022-10-20T04:52:20.749Z,11.50
2022-10-20T04:54:47.581Z,11.50
2022-10-20T04:57:14.354Z,11.50
2022-10-20T04:59:41.105Z,11.50
2022-10-20T05:02:08.272Z,11.60
2022-10-20T05:04:35.026Z,11.60
2022-10-20T05:07:01.845Z,11.60
2022-10-20T05:09:29.075Z,11.50
2022-10-20T05:11:55.737Z,11.40
2022-10-20T05:14:22.558Z,11.40
2022-10-20T05:16:49.251Z,11.40
2022-10-20T05:19:16.162Z,11.40
2022-10-20T05:21:43.114Z,11.40
2022-10-20T05:24:19.787Z,11.50
2022-10-20T05:26:48.236Z,11.40
2022-10-20T05:29:16.161Z,11.30
2022-10-20T05:31:44.636Z,11.30
2022-10-20T05:34:14.393Z,11.40
2022-10-20T05:36:41.129Z,11.40
2022-10-20T05:39:07.866Z,11.40
2022-10-20T05:41:38.006Z,11.40
2022-10-20T05:44:08.876Z,11.50
2022-10-20T05:46:42.926Z,11.50
2022-10-20T05:49:15.460Z,11.50
2022-10-20T05:51:43.163Z,11.40
2022-10-20T05:54:12.715Z,11.50
2022-10-20T05:56:39.508Z,11.40
2022-10-20T05:59:06.233Z,11.40
2022-10-20T06:01:47.479Z,11.40
2022-10-20T06:04:28.099Z,11.40
2022-10-20T06:06:55.950Z,11.30
2022-10-20T06:09:24.325Z,11.40
2022-10-20T06:11:52.095Z,11.40
2022-10-20T06:14:19.260Z,11.40
2022-10-20T06:16:46.140Z,11.40
2022-10-20T06:19:12.857Z,11.50
2022-10-20T06:21:39.642Z,11.60
2022-10-20T06:24:07.393Z,11.40
2022-10-20T06:26:38.345Z,11.40
2022-10-20T06:29:07.806Z,11.50
2022-10-20T06:31:38.974Z,11.50
2022-10-20T06:34:08.150Z,11.60
2022-10-20T06:36:36.825Z,11.60
2022-10-20T06:39:05.942Z,11.70
2022-10-20T06:41:33.579Z,11.60
2022-10-20T06:44:00.547Z,11.60
2022-10-20T06:46:32.114Z,11.70
2022-10-20T06:49:03.674Z,11.80
2022-10-20T06:51:30.642Z,11.90
2022-10-20T06:53:58.934Z,12.00
2022-10-20T06:56:28.906Z,12.10
2022-10-20T06:58:57.287Z,12.10
2022-10-20T07:01:32.697Z,12.10
2022-10-20T07:04:02.615Z,12.10
2022-10-20T07:06:35.058Z,12.20
2022-10-20T07:09:08.214Z,12.10
2022-10-20T07:11:35.558Z,12.10
2022-10-20T07:14:03.027Z,12.20
2022-10-20T07:16:32.245Z,12.30
2022-10-20T07:18:59.702Z,12.40
2022-10-20T07:21:32.393Z,12.50
2022-10-20T07:24:03.745Z,12.60
2022-10-20T07:26:33.766Z,12.70
2022-10-20T07:29:01.589Z,12.70
2022-10-20T07:31:46.285Z,12.80
2022-10-20T07:34:30.736Z,12.80
2022-10-20T07:36:58.171Z,12.90
2022-10-20T07:39:25.570Z,13.10
2022-10-20T07:41:52.607Z,13.30
2022-10-20T07:44:20.038Z,13.50
2022-10-20T07:46:46.849Z,13.60
2022-10-20T07:52:00.311Z,13.80
2022-10-20T07:54:27.042Z,13.90
2022-10-20T07:56:53.741Z,14.00
2022-10-20T07:59:20.573Z,14.10
2022-10-20T08:01:47.723Z,14.20
2022-10-20T08:04:14.488Z,14.30
2022-10-20T08:06:41.386Z,14.40
2022-10-20T08:09:08.468Z,14.50
2022-10-20T08:11:35.903Z,14.50
2022-10-20T08:14:02.850Z,14.50
2022-10-20T08:16:29.644Z,14.60
2022-10-20T08:19:11.805Z,14.80
2022-10-20T08:21:38.511Z,15.10
2022-10-20T08:24:05.519Z,15.20
2022-10-20T08:26:32.291Z,15.20
2022-10-20T08:28:59.098Z,15.30
2022-10-20T08:31:25.822Z,15.40
2022-10-20T08:33:53.328Z,15.40
2022-10-20T08:36:21.041Z,15.60
2022-10-20T08:38:48.389Z,15.70
2022-10-20T08:41:24.857Z,15.80
2022-10-20T08:43:54.833Z,15.90
2022-10-20T08:46:29.943Z,16.00
2022-10-20T08:48:57.268Z,16.00
2022-10-20T08:51:28.130Z,16.10
2022-10-20T08:53:58.522Z,16.10
2022-10-20T08:56:29.457Z,16.00
2022-10-20T08:58:56.812Z,16.00
2022-10-20T09:01:33.039Z,16.00
2022-10-20T09:04:32.576Z,16.20
2022-10-20T09:07:05.751Z,16.30
2022-10-20T09:09:33.669Z,16.40
2022-10-20T09:12:06.960Z,16.50
2022-10-20T09:14:37.133Z,16.50
2022-10-20T09:17:07.915Z,16.60
2022-10-20T09:19:36.409Z,16.50
2022-10-20T09:22:06.078Z,16.30
2022-10-20T09:24:35.709Z,16.30
2022-10-20T09:27:34.429Z,16.40
2022-10-20T09:30:25.908Z,16.40
2022-10-20T09:32:52.850Z,16.50
2022-10-20T09:35:19.647Z,16.50
2022-10-20T09:37:53.271Z,16.40
2022-10-20T09:40:20.396Z,16.30
2022-10-20T09:42:54.481Z,16.10
2022-10-20T09:45:28.763Z,16.00
2022-10-20T09:48:32.609Z,16.00
2022-10-20T09:51:00.223Z,16.00
2022-10-20T09:53:34.285Z,15.90
2022-10-20T09:56:01.625Z,15.80
2022-10-20T09:58:33.646Z,15.70
2022-10-20T10:01:11.861Z,15.70
2022-10-20T10:03:51.593Z,15.60
2022-10-20T10:06:33.003Z,15.50
2022-10-20T10:09:01.747Z,15.40
2022-10-20T10:11:36.775Z,15.30
2022-10-20T10:14:04.021Z,15.40
2022-10-20T10:16:41.659Z,15.40
2022-10-20T10:19:17.312Z,15.40
2022-10-20T10:21:47.257Z,15.50
2022-10-20T10:24:46.416Z,15.50
2022-10-20T10:27:23.823Z,15.60
2022-10-20T10:29:50.788Z,15.60
2022-10-20T10:32:28.602Z,15.50
2022-10-20T10:35:19.924Z,15.60
2022-10-20T10:37:47.582Z,15.60
2022-10-20T10:40:18.196Z,15.70
2022-10-20T10:42:51.465Z,15.70
2022-10-20T10:45:29.913Z,15.60
2022-10-20T10:48:14.736Z,15.50
2022-10-20T10:50:53.999Z,15.60
2022-10-20T10:53:26.953Z,15.70
2022-10-20T10:58:57.039Z,15.60
2022-10-20T11:01:58.863Z,15.70
2022-10-20T11:04:44.357Z,15.70
2022-10-20T11:07:24.198Z,15.70
2022-10-20T11:10:18.145Z,15.60
2022-10-20T11:12:44.798Z,15.50
2022-10-20T11:15:35.534Z,15.60
2022-10-20T11:18:24.103Z,15.60
2022-10-20T11:21:28.103Z,15.60
2022-10-20T11:24:12.653Z,15.50
2022-10-20T11:26:43.078Z,15.60
2022-10-20T11:29:33.561Z,15.60
2022-10-20T11:32:09.794Z,15.70
2022-10-20T11:34:52.099Z,15.50
2022-10-20T11:37:26.042Z,15.60
2022-10-20T11:40:18.406Z,15.70
2022-10-20T11:42:58.035Z,15.70
2022-10-20T11:45:24.730Z,15.70
2022-10-20T11:48:02.823Z,15.70
2022-10-20T11:50:30.635Z,15.60
2022-10-20T11:53:23.397Z,15.60
2022-10-20T11:56:09.079Z,15.60
2022-10-20T11:58:52.310Z,15.80
2022-10-20T12:01:36.424Z,15.80
2022-10-20T12:04:24.995Z,16.00
2022-10-20T12:07:09.683Z,16.10
2022-10-20T12:10:27.837Z,16.40
2022-10-20T12:13:15.553Z,16.70
2022-10-20T12:15:49.907Z,16.80
2022-10-20T12:18:32.033Z,16.90
2022-10-20T12:21:10.507Z,17.00
2022-10-20T12:23:45.024Z,17.00
2022-10-20T12:26:30.173Z,16.90
2022-10-20T12:28:58.069Z,16.90
2022-10-20T12:31:25.752Z,16.90
2022-10-20T12:33:55.165Z,16.90
2022-10-20T12:36:39.363Z,17.00
2022-10-20T12:39:21.836Z,17.10
2022-10-20T12:41:58.446Z,17.20
2022-10-20T12:44:29.009Z,17.30
2022-10-20T12:47:06.252Z,17.20
2022-10-20T12:49:36.483Z,17.20
2022-10-20T12:52:07.337Z,17.00
2022-10-20T12:54:39.582Z,16.90
2022-10-20T12:57:31.142Z,16.90
2022-10-20T12:59:57.827Z,16.90
2022-10-20T13:02:24.667Z,16.90
2022-10-20T13:05:06.679Z,16.70
2022-10-20T13:07:48.478Z,16.60
2022-10-20T13:10:27.581Z,16.50
2022-10-20T13:13:03.837Z,16.30
2022-10-20T13:15:37.034Z,16.30
2022-10-20T13:18:21.364Z,16.20
2022-10-20T13:21:00.106Z,16.30
2022-10-20T13:23:34.298Z,16.30
2022-10-20T13:26:26.574Z,16.30
2022-10-20T13:29:10.713Z,16.40
2022-10-20T13:31:52.997Z,16.40
2022-10-20T13:34:39.318Z,16.40
2022-10-20T13:37:06.097Z,16.40
2022-10-20T13:39:49.936Z,16.40
2022-10-20T13:42:17.007Z,16.40
2022-10-20T13:45:23.377Z,16.40
2022-10-20T13:48:01.021Z,16.40
2022-10-20T13:50:34.434Z,16.30
2022-10-20T13:53:13.908Z,16.30
2022-10-20T13:56:10.760Z,16.20
2022-10-20T13:58:37.522Z,16.20
2022-10-20T14:01:16.984Z,16.20
2022-10-20T14:03:45.871Z,16.20
2022-10-20T14:06:31.435Z,16.20
2022-10-20T14:09:08.503Z,16.20
2022-10-20T14:11:35.279Z,16.20
2022-10-20T14:14:02.635Z,16.20
2022-10-20T14:16:31.557Z,16.30
2022-10-20T14:19:13.060Z,16.30
2022-10-20T14:21:50.748Z,16.30
2022-10-20T14:24:32.745Z,16.30
2022-10-20T14:27:01.845Z,16.30
2022-10-20T14:29:32.394Z,16.20
2022-10-20T14:32:00.078Z,16.10
2022-10-20T14:34:34.042Z,16.20
2022-10-20T14:37:01.304Z,16.20
2022-10-20T14:39:38.039Z,16.20
2022-10-20T14:42:20.385Z,16.20
2022-10-20T14:44:49.323Z,16.20
2022-10-20T14:47:17.483Z,16.20
2022-10-20T14:49:52.343Z,16.20
2022-10-20T14:52:21.691Z,16.10
2022-10-20T14:54:52.810Z,16.10
2022-10-20T14:57:19.596Z,16.00
2022-10-20T15:00:04.250Z,16.00
2022-10-20T15:02:42.642Z,16.10
2022-10-20T15:05:32.597Z,16.00
2022-10-20T15:08:18.960Z,16.00
2022-10-20T15:10:46.059Z,16.00
2022-10-20T15:13:27.736Z,16.00
2022-10-20T15:15:56.435Z,16.00
2022-10-20T15:18:24.789Z,16.00
2022-10-20T15:20:53.254Z,16.00
2022-10-20T15:23:22.750Z,16.00
2022-10-20T15:26:03.100Z,15.90
2022-10-20T15:28:46.266Z,15.70
2022-10-20T15:31:12.918Z,15.60
2022-10-20T15:33:42.857Z,15.70
2022-10-20T15:36:11.424Z,15.50
2022-10-20T15:38:38.149Z,15.50
2022-10-20T15:41:05.001Z,15.50
2022-10-20T15:43:32.313Z,15.50
2022-10-20T15:45:59.123Z,15.60
2022-10-20T15:48:26.242Z,15.60
2022-10-20T15:50:54.184Z,15.60
2022-10-20T15:53:21.089Z,15.60
2022-10-20T15:55:48.060Z,15.50
2022-10-20T15:58:14.887Z,15.40
2022-10-20T16:00:41.715Z,15.30
2022-10-20T16:03:17.120Z,15.30
2022-10-20T16:05:44.463Z,15.20
2022-10-20T16:08:11.242Z,15.20
2022-10-20T16:10:39.000Z,15.20
2022-10-20T16:13:06.150Z,15.20
2022-10-20T16:15:32.925Z,15.10
2022-10-20T16:17:59.684Z,15.10
2022-10-20T16:20:26.531Z,15.10
2022-10-20T16:22:53.323Z,15.20
2022-10-20T16:25:20.074Z,15.20
2022-10-20T16:27:46.816Z,15.20
2022-10-20T16:30:13.706Z,15.20
2022-10-20T16:32:40.768Z,15.20
2022-10-20T16:35:07.963Z,15.20
2022-10-20T16:37:34.900Z,15.20
2022-10-20T16:40:02.182Z,15.10
2022-10-20T16:42:30.284Z,15.10
2022-10-20T16:44:57.436Z,14.90
2022-10-20T16:47:25.821Z,14.90
2022-10-20T16:49:52.634Z,14.90
2022-10-20T16:52:19.804Z,15.00
2022-10-20T16:54:46.547Z,15.00
2022-10-20T16:57:13.891Z,14.90
2022-10-20T16:59:42.467Z,14.80
2022-10-20T17:02:11.518Z,14.90
2022-10-20T17:04:38.277Z,15.00
2022-10-20T17:07:05.903Z,14.90
2022-10-20T17:09:32.648Z,14.90
2022-10-20T17:11:59.833Z,14.90
2022-10-20T17:14:26.514Z,14.90
2022-10-20T17:16:53.246Z,14.80
2022-10-20T17:19:19.986Z,14.80
2022-10-20T17:21:46.764Z,14.90
2022-10-20T17:24:14.317Z,14.80
2022-10-20T17:26:41.974Z,14.80
2022-10-20T17:29:09.660Z,14.70
2022-10-20T17:31:37.726Z,14.80
2022-10-20T17:34:05.106Z,14.80
2022-10-20T17:36:32.526Z,14.80
2022-10-20T17:39:02.662Z,14.70
2022-10-20T17:41:30.032Z,14.70
2022-10-20T17:43:59.833Z,14.70
2022-10-20T17:46:26.880Z,14.70
2022-10-20T17:48:54.082Z,14.70
2022-10-20T17:51:27.771Z,14.60
2022-10-20T17:53:58.044Z,14.70
2022-10-20T17:56:31.282Z,14.80
2022-10-20T17:58:59.798Z,14.80
2022-10-20T18:01:30.515Z,14.70
2022-10-20T18:04:00.276Z,14.70
2022-10-20T18:06:33.527Z,14.70
2022-10-20T18:09:06.400Z,14.70
2022-10-20T18:11:34.674Z,14.70
2022-10-20T18:14:01.717Z,14.60
2022-10-20T18:16:31.658Z,14.70
2022-10-20T18:18:59.374Z,14.70
2022-10-20T18:21:27.823Z,14.80
2022-10-20T18:24:02.089Z,14.80
2022-10-20T18:26:30.166Z,14.80
2022-10-20T18:28:59.316Z,14.60
2022-10-20T18:31:28.944Z,14.60
2022-10-20T18:34:02.667Z,14.60
2022-10-20T18:36:33.420Z,14.70
2022-10-20T18:39:00.892Z,14.70
2022-10-20T18:41:30.442Z,14.70
2022-10-20T18:44:01.486Z,14.70
2022-10-20T18:46:31.209Z,14.60
2022-10-20T18:48:59.025Z,14.60
2022-10-20T18:51:26.687Z,14.70
2022-10-20T18:53:55.629Z,14.60
2022-10-20T18:56:24.177Z,14.60
2022-10-20T18:58:53.163Z,14.60
2022-10-20T19:01:22.774Z,14.60
2022-10-20T19:03:52.687Z,14.70
2022-10-20T19:06:21.942Z,14.50
2022-10-20T19:08:53.293Z,14.30
2022-10-20T19:11:22.283Z,14.40
2022-10-20T19:13:49.893Z,14.50
2022-10-20T19:16:20.031Z,14.50
2022-10-20T19:18:48.791Z,14.40
2022-10-20T19:21:16.106Z,14.40
2022-10-20T19:23:46.906Z,14.30
2022-10-20T19:26:36.150Z,14.30
2022-10-20T19:29:10.498Z,14.40
2022-10-20T19:31:43.856Z,14.40
2022-10-20T19:34:20.916Z,14.40
2022-10-20T19:36:48.307Z,14.50
2022-10-20T19:39:19.090Z,14.50
2022-10-20T19:41:46.442Z,14.40
2022-10-20T19:44:15.416Z,14.30
2022-10-20T19:46:46.700Z,14.40
2022-10-20T19:49:14.347Z,14.50
2022-10-20T19:51:42.087Z,14.40
2022-10-20T19:54:09.609Z,14.30
2022-10-20T19:56:36.852Z,14.30
2022-10-20T19:59:04.979Z,14.20
2022-10-20T20:01:32.654Z,14.30
2022-10-20T20:03:59.873Z,14.30
2022-10-20T20:06:28.443Z,14.30
2022-10-20T20:08:59.332Z,14.40
2022-10-20T20:11:30.732Z,14.20
2022-10-20T20:14:04.540Z,14.20
2022-10-20T20:16:31.605Z,14.30
2022-10-20T20:18:58.644Z,14.30
2022-10-20T20:21:26.685Z,14.30
2022-10-20T20:23:59.332Z,14.30
2022-10-20T20:26:28.389Z,14.30
2022-10-20T20:28:56.103Z,14.30
2022-10-20T20:31:23.841Z,14.10
2022-10-20T20:33:50.889Z,14.10
2022-10-20T20:36:17.635Z,14.00
2022-10-20T20:38:44.800Z,13.90
2022-10-20T20:41:14.281Z,13.90
2022-10-20T20:43:41.475Z,13.70
2022-10-20T20:46:12.140Z,13.70
2022-10-20T20:48:39.218Z,13.60
2022-10-20T20:51:06.522Z,13.70
2022-10-20T20:53:38.071Z,13.70
2022-10-20T20:56:06.071Z,13.70
2022-10-20T20:58:33.369Z,13.70
2022-10-20T21:01:07.833Z,13.70
2022-10-20T21:03:35.707Z,13.70
2022-10-20T21:06:07.656Z,13.60
2022-10-20T21:08:36.023Z,13.60
2022-10-20T21:11:06.770Z,13.70
2022-10-20T21:13:34.173Z,13.50
2022-10-20T21:16:14.054Z,13.40
2022-10-20T21:18:43.069Z,13.50
2022-10-20T21:21:12.730Z,13.60
2022-10-20T21:23:40.492Z,13.70
2022-10-20T21:26:08.478Z,13.60
2022-10-20T21:28:35.589Z,13.60
2022-10-20T21:31:07.106Z,13.60
2022-10-20T21:33:34.067Z,13.60
2022-10-20T21:36:06.195Z,13.60
2022-10-20T21:38:35.583Z,13.60
2022-10-20T21:41:13.041Z,13.70
2022-10-20T21:43:43.970Z,13.60
2022-10-20T21:46:15.131Z,13.50
2022-10-20T21:48:43.438Z,13.50
2022-10-20T21:51:14.432Z,13.50
2022-10-20T21:53:41.139Z,13.50
2022-10-20T21:56:08.771Z,13.50
2022-10-20T21:58:36.352Z,13.40
2022-10-20T22:01:13.602Z,13.30
2022-10-20T22:03:41.075Z,13.30
2022-10-20T22:06:09.781Z,13.20
2022-10-20T22:08:41.925Z,13.10
2022-10-20T22:11:15.737Z,13.10
2022-10-20T22:13:43.005Z,13.10
2022-10-20T22:16:13.509Z,13.00
2022-10-20T22:18:40.220Z,13.00
2022-10-20T22:21:13.520Z,12.90
2022-10-20T22:23:41.263Z,13.00
2022-10-20T22:26:08.387Z,13.10
2022-10-20T22:28:35.321Z,13.10
2022-10-20T22:31:02.302Z,12.90
2022-10-20T22:33:29.164Z,12.90
2022-10-20T22:35:55.950Z,12.90
2022-10-20T22:38:22.711Z,12.90
2022-10-20T22:40:49.574Z,12.80
2022-10-20T22:43:16.323Z,12.90
2022-10-20T22:45:43.228Z,12.80
2022-10-20T22:48:09.923Z,12.80
2022-10-20T22:50:36.658Z,12.80
2022-10-20T22:53:03.516Z,12.80
2022-10-20T22:55:30.238Z,12.90
2022-10-20T23:00:28.658Z,12.70
2022-10-20T23:02:55.681Z,12.80
2022-10-20T23:05:22.553Z,12.80
2022-10-20T23:07:49.266Z,12.80
2022-10-20T23:10:16.199Z,12.70
2022-10-20T23:12:43.240Z,12.70
2022-10-20T23:15:10.391Z,12.80
2022-10-20T23:17:37.908Z,13.00
2022-10-20T23:20:05.628Z,13.10
2022-10-20T23:22:32.398Z,13.00
2022-10-20T23:24:59.058Z,13.10
2022-10-20T23:27:25.739Z,13.00
2022-10-20T23:29:52.476Z,13.10
2022-10-20T23:32:19.191Z,13.20
2022-10-20T23:34:45.905Z,13.30
2022-10-20T23:37:12.713Z,13.20
2022-10-20T23:39:39.383Z,13.20
2022-10-20T23:42:07.330Z,13.30
2022-10-20T23:44:34.462Z,13.40
2022-10-20T23:47:01.208Z,13.60
2022-10-20T23:49:27.914Z,13.70
2022-10-20T23:51:54.662Z,13.90
2022-10-20T23:54:21.542Z,13.90
2022-10-20T23:56:48.315Z,13.80
2022-10-20T23:59:15.070Z,13.80
